sensor_id;sensor_type;location;lat;lon;timestamp;temperature;humidity
75517;DHT22;64097;52.548;13.406;2023-02-11T06:06:16;10.20;62.30
75517;DHT22;64097;52.548;13.406;2023-02-11T06:08:42;10.20;62.40
75517;DHT22;64097;52.548;13.406;2023-02-11T06:11:08;10.30;62.60
75517;DHT22;64097;52.548;13.406;2023-02-11T06:13:34;10.30;62.60
75517;DHT22;64097;52.548;13.406;2023-02-11T06:16:02;10.30;62.60
75517;DHT22;64097;52.548;13.406;2023-02-11T06:18:28;10.30;62.70
75517;DHT22;64097;52.548;13.406;2023-02-11T06:20:54;10.30;63.00
75517;DHT22;64097;52.548;13.406;2023-02-11T06:23:20;10.30;63.00
75517;DHT22;64097;52.548;13.406;2023-02-11T06:25:46;10.30;62.90
75517;DHT22;64097;52.548;13.406;2023-02-11T06:28:12;10.30;63.10
75517;DHT22;64097;52.548;13.406;2023-02-11T06:30:37;10.40;63.20
75517;DHT22;64097;52.548;13.406;2023-02-11T06:33:03;10.40;63.30
75517;DHT22;64097;52.548;13.406;2023-02-11T06:35:29;10.40;63.40
75517;DHT22;64097;52.548;13.406;2023-02-11T06:37:55;10.40;63.30
75517;DHT22;64097;52.548;13.406;2023-02-11T06:40:21;10.40;63.50
75517;DHT22;64097;52.548;13.406;2023-02-11T06:42:46;10.40;63.50
75517;DHT22;64097;52.548;13.406;2023-02-11T06:45:12;10.40;63.50
75517;DHT22;64097;52.548;13.406;2023-02-11T06:47:39;10.50;63.60
75517;DHT22;64097;52.548;13.406;2023-02-11T06:50:07;10.50;63.80
75517;DHT22;64097;52.548;13.406;2023-02-11T06:52:33;10.50;63.80
75517;DHT22;64097;52.548;13.406;2023-02-11T06:54:59;10.50;63.80
75517;DHT22;64097;52.548;13.406;2023-02-11T06:57:24;10.50;64.10
75517;DHT22;64097;52.548;13.406;2023-02-11T06:59:50;10.50;64.10
75517;DHT22;64097;52.548;13.406;2023-02-11T07:02:16;10.50;64.00
75517;DHT22;64097;52.548;13.406;2023-02-11T07:04:41;10.50;64.20
75517;DHT22;64097;52.548;13.406;2023-02-11T07:07:07;10.50;64.10
75517;DHT22;64097;52.548;13.406;2023-02-11T07:09:33;10.50;64.20
75517;DHT22;64097;52.548;13.406;2023-02-11T07:11:59;10.50;64.20
75517;DHT22;64097;52.548;13.406;2023-02-11T07:14:24;10.60;64.40
75517;DHT22;64097;52.548;13.406;2023-02-11T07:16:50;10.50;64.40
75517;DHT22;64097;52.548;13.406;2023-02-11T07:19:16;10.60;64.70
75517;DHT22;64097;52.548;13.406;2023-02-11T07:21:42;10.60;65.70
75517;DHT22;64097;52.548;13.406;2023-02-11T07:24:08;10.60;64.70
75517;DHT22;64097;52.548;13.406;2023-02-11T07:26:35;10.60;64.80
75517;DHT22;64097;52.548;13.406;2023-02-11T07:29:01;10.60;64.80
75517;DHT22;64097;52.548;13.406;2023-02-11T07:31:28;10.60;65.10
75517;DHT22;64097;52.548;13.406;2023-02-11T07:33:56;10.70;65.10
75517;DHT22;64097;52.548;13.406;2023-02-11T07:36:22;10.60;65.10
75517;DHT22;64097;52.548;13.406;2023-02-11T07:38:49;10.70;65.20
75517;DHT22;64097;52.548;13.406;2023-02-11T07:41:20;10.70;65.30
75517;DHT22;64097;52.548;13.406;2023-02-11T07:43:46;10.70;65.30
75517;DHT22;64097;52.548;13.406;2023-02-11T07:46:23;10.80;65.30
75517;DHT22;64097;52.548;13.406;2023-02-11T07:48:50;10.80;65.20
75517;DHT22;64097;52.548;13.406;2023-02-11T07:51:27;10.80;65.20
75517;DHT22;64097;52.548;13.406;2023-02-11T07:53:54;10.80;65.20
75517;DHT22;64097;52.548;13.406;2023-02-11T07:56:21;10.80;65.10
75517;DHT22;64097;52.548;13.406;2023-02-11T07:58:47;10.90;65.10
75517;DHT22;64097;52.548;13.406;2023-02-11T08:01:17;10.90;64.90
75517;DHT22;64097;52.548;13.406;2023-02-11T08:03:43;11.00;64.90
75517;DHT22;64097;52.548;13.406;2023-02-11T08:06:11;11.00;64.90
75517;DHT22;64097;52.548;13.406;2023-02-11T08:08:38;11.00;64.80
75517;DHT22;64097;52.548;13.406;2023-02-11T08:11:14;11.00;64.70
75517;DHT22;64097;52.548;13.406;2023-02-11T08:13:41;11.00;64.70
75517;DHT22;64097;52.548;13.406;2023-02-11T08:16:07;11.00;64.90
75517;DHT22;64097;52.548;13.406;2023-02-11T08:18:34;11.00;65.00
75517;DHT22;64097;52.548;13.406;2023-02-11T08:21:07;11.00;65.00
75517;DHT22;64097;52.548;13.406;2023-02-11T08:23:37;11.10;65.20
75517;DHT22;64097;52.548;13.406;2023-02-11T08:26:04;11.10;65.20
75517;DHT22;64097;52.548;13.406;2023-02-11T08:28:30;11.10;65.10
75517;DHT22;64097;52.548;13.406;2023-02-11T08:30:55;11.10;65.30
75517;DHT22;64097;52.548;13.406;2023-02-11T08:33:21;11.10;65.40
75517;DHT22;64097;52.548;13.406;2023-02-11T08:35:47;11.10;65.50
75517;DHT22;64097;52.548;13.406;2023-02-11T08:38:12;11.10;66.40
75517;DHT22;64097;52.548;13.406;2023-02-11T08:40:38;11.20;65.70
75517;DHT22;64097;52.548;13.406;2023-02-11T08:43:04;11.20;65.70
75517;DHT22;64097;52.548;13.406;2023-02-11T08:45:29;11.20;65.90
75517;DHT22;64097;52.548;13.406;2023-02-11T08:47:55;11.20;65.80
75517;DHT22;64097;52.548;13.406;2023-02-11T08:50:21;11.20;65.70
75517;DHT22;64097;52.548;13.406;2023-02-11T08:52:46;11.20;65.80
75517;DHT22;64097;52.548;13.406;2023-02-11T08:55:12;11.20;65.90
75517;DHT22;64097;52.548;13.406;2023-02-11T08:57:38;11.20;65.70
75517;DHT22;64097;52.548;13.406;2023-02-11T09:00:05;11.20;65.70
75517;DHT22;64097;52.548;13.406;2023-02-11T09:02:31;11.20;65.70
75517;DHT22;64097;52.548;13.406;2023-02-11T09:04:56;11.20;65.70
75517;DHT22;64097;52.548;13.406;2023-02-11T09:07:22;11.20;65.70
75517;DHT22;64097;52.548;13.406;2023-02-11T09:09:47;11.20;65.70
75517;DHT22;64097;52.548;13.406;2023-02-11T09:12:13;11.30;65.70
75517;DHT22;64097;52.548;13.406;2023-02-11T09:14:39;11.30;65.80
75517;DHT22;64097;52.548;13.406;2023-02-11T09:17:05;11.30;65.80
75517;DHT22;64097;52.548;13.406;2023-02-11T09:19:31;11.30;65.80
75517;DHT22;64097;52.548;13.406;2023-02-11T09:21:58;11.30;65.70
75517;DHT22;64097;52.548;13.406;2023-02-11T09:24:24;11.30;65.80
75517;DHT22;64097;52.548;13.406;2023-02-11T09:26:49;11.30;65.80
75517;DHT22;64097;52.548;13.406;2023-02-11T09:29:15;11.30;65.80
75517;DHT22;64097;52.548;13.406;2023-02-11T09:31:41;11.30;65.70
75517;DHT22;64097;52.548;13.406;2023-02-11T09:34:07;11.40;65.80
75517;DHT22;64097;52.548;13.406;2023-02-11T09:36:36;11.40;65.70
75517;DHT22;64097;52.548;13.406;2023-02-11T09:39:04;11.40;65.70
75517;DHT22;64097;52.548;13.406;2023-02-11T09:41:55;11.40;65.70
75517;DHT22;64097;52.548;13.406;2023-02-11T09:44:24;11.40;65.70
75517;DHT22;64097;52.548;13.406;2023-02-11T09:47:24;11.50;65.70
75517;DHT22;64097;52.548;13.406;2023-02-11T09:50:10;11.50;66.00
75517;DHT22;64097;52.548;13.406;2023-02-11T09:52:49;11.50;65.90
75517;DHT22;64097;52.548;13.406;2023-02-11T09:57:48;11.50;65.90
75517;DHT22;64097;52.548;13.406;2023-02-11T10:00:22;11.50;65.90
75517;DHT22;64097;52.548;13.406;2023-02-11T10:14:57;11.60;66.30
75517;DHT22;64097;52.548;13.406;2023-02-11T10:22:46;11.60;66.60
75517;DHT22;64097;52.548;13.406;2023-02-11T10:25:33;11.60;66.70
75517;DHT22;64097;52.548;13.406;2023-02-11T10:28:16;11.60;66.80
75517;DHT22;64097;52.548;13.406;2023-02-11T10:30:51;11.60;67.00
75517;DHT22;64097;52.548;13.406;2023-02-11T10:36:03;11.60;67.30
75517;DHT22;64097;52.548;13.406;2023-02-11T10:38:29;11.60;67.30
75517;DHT22;64097;52.548;13.406;2023-02-11T10:40:55;11.70;67.40
75517;DHT22;64097;52.548;13.406;2023-02-11T10:43:25;11.70;67.40
75517;DHT22;64097;52.548;13.406;2023-02-11T10:45:52;11.70;67.60
75517;DHT22;64097;52.548;13.406;2023-02-11T10:53:38;11.60;67.60
75517;DHT22;64097;52.548;13.406;2023-02-11T10:56:06;11.70;67.70
75517;DHT22;64097;52.548;13.406;2023-02-11T10:58:46;11.70;67.90
75517;DHT22;64097;52.548;13.406;2023-02-11T11:01:18;11.70;68.00
75517;DHT22;64097;52.548;13.406;2023-02-11T11:03:47;11.70;68.00
75517;DHT22;64097;52.548;13.406;2023-02-11T11:06:13;11.70;68.00
75517;DHT22;64097;52.548;13.406;2023-02-11T11:08:49;11.70;68.90
75517;DHT22;64097;52.548;13.406;2023-02-11T11:11:17;11.80;68.10
75517;DHT22;64097;52.548;13.406;2023-02-11T11:16:30;11.80;68.10
75517;DHT22;64097;52.548;13.406;2023-02-11T11:21:43;11.80;68.50
75517;DHT22;64097;52.548;13.406;2023-02-11T11:24:31;11.80;68.60
75517;DHT22;64097;52.548;13.406;2023-02-11T11:27:01;11.80;68.60
75517;DHT22;64097;52.548;13.406;2023-02-11T11:29:42;11.80;68.70
75517;DHT22;64097;52.548;13.406;2023-02-11T11:35:33;11.80;68.70
75517;DHT22;64097;52.548;13.406;2023-02-11T11:37:35;11.80;68.80
75517;DHT22;64097;52.548;13.406;2023-02-11T11:40:08;11.80;68.80
75517;DHT22;64097;52.548;13.406;2023-02-11T11:42:36;11.80;68.80
75517;DHT22;64097;52.548;13.406;2023-02-11T11:48:03;11.90;68.90
75517;DHT22;64097;52.548;13.406;2023-02-11T11:50:38;11.90;69.00
75517;DHT22;64097;52.548;13.406;2023-02-11T11:54:10;11.90;69.00
75517;DHT22;64097;52.548;13.406;2023-02-11T11:56:12;11.90;69.20
75517;DHT22;64097;52.548;13.406;2023-02-11T11:58:38;11.90;69.10
75517;DHT22;64097;52.548;13.406;2023-02-11T12:09:32;12.00;69.00
75517;DHT22;64097;52.548;13.406;2023-02-11T12:14:55;12.00;69.00
75517;DHT22;64097;52.548;13.406;2023-02-11T12:26:23;12.10;69.00
75517;DHT22;64097;52.548;13.406;2023-02-11T12:34:38;12.10;69.00
75517;DHT22;64097;52.548;13.406;2023-02-11T12:42:32;12.20;69.30
75517;DHT22;64097;52.548;13.406;2023-02-11T13:02:17;12.30;69.30
75517;DHT22;64097;52.548;13.406;2023-02-11T13:04:48;12.30;69.40
75517;DHT22;64097;52.548;13.406;2023-02-11T13:07:40;12.30;69.40
75517;DHT22;64097;52.548;13.406;2023-02-11T13:10:30;12.30;69.30
75517;DHT22;64097;52.548;13.406;2023-02-11T13:12:58;12.40;69.30
75517;DHT22;64097;52.548;13.406;2023-02-11T13:15:50;12.40;69.40
75517;DHT22;64097;52.548;13.406;2023-02-11T13:18:48;12.40;69.30
75517;DHT22;64097;52.548;13.406;2023-02-11T13:24:00;12.50;69.30
75517;DHT22;64097;52.548;13.406;2023-02-11T13:26:56;12.40;69.30
75517;DHT22;64097;52.548;13.406;2023-02-11T13:29:39;12.40;69.30
75517;DHT22;64097;52.548;13.406;2023-02-11T13:32:08;12.40;69.40
75517;DHT22;64097;52.548;13.406;2023-02-11T13:37:36;12.50;69.50
75517;DHT22;64097;52.548;13.406;2023-02-11T13:40:27;12.50;69.70
75517;DHT22;64097;52.548;13.406;2023-02-11T13:42:53;12.40;69.60
75517;DHT22;64097;52.548;13.406;2023-02-11T13:45:29;12.50;69.80
75517;DHT22;64097;52.548;13.406;2023-02-11T13:48:04;12.40;69.60
75517;DHT22;64097;52.548;13.406;2023-02-11T13:50:37;12.40;69.60
75517;DHT22;64097;52.548;13.406;2023-02-11T13:53:05;12.40;69.60
75517;DHT22;64097;52.548;13.406;2023-02-11T13:55:34;12.50;69.70
